Gardner, Kansas
Current Conditions -  °F | °C
As of 10:53 PM on Sunday 21 Dec 2014 (Local Time) from KIXD Reporting Station
Overcast Overcast  
Wind Chill: 36°   Ceiling: 2100
Heat Index: 43°   Visibility: 10mi
Dew Point: 39°   Wind: 14mph
Humidity: 86%   Direction: 150°SSE
Pressure: 29.76"   Gusts: NA
Location:  38.81°N, 94.93°W
Report Text: KIXD 220453Z AUTO 15012KT 10SM OVC021 06/04 A2976 RMK AO2 RAB24E34 SLP079 P0000 T00610039
Loading
Personal Weather Stations






























Interactive Weather Map New forecast layout! Learn more

10-Day Weather Forecast

Advertisements
Track Severe Weather on mobile